Time;durP1;ratioP1;P1;durP2;ratioP2;P2;SDS_P1;SDS_P2;PMS_P1;PMS_P2;Temp;Humidity;BMP_temperature;BMP_pressure;BME280_temperature;BME280_humidity;BME280_pressure;Samples;Min_cycle;Max_cycle;Signal;HPM_P1;HPM_P2
2024/01/29 00:00:16;;;;;;;25.17;10.77;;;-3.00;99.90;;;;;;4958772;28;20419;-65
2024/01/29 00:02:45;;;;;;;27.52;11.75;;;-2.60;99.90;;;;;;4975697;28;20525;-65
2024/01/29 00:05:11;;;;;;;28.48;12.40;;;-2.90;99.90;;;;;;4958337;28;20045;-65
2024/01/29 00:07:37;;;;;;;30.13;12.13;;;-2.60;99.90;;;;;;4976042;28;20027;-65
2024/01/29 00:10:03;;;;;;;27.17;10.43;;;-2.70;99.90;;;;;;4958203;28;20027;-65
2024/01/29 00:12:29;;;;;;;36.15;13.00;;;-2.60;99.90;;;;;;4975634;28;20084;-65
2024/01/29 00:14:54;;;;;;;25.98;11.65;;;-2.70;99.90;;;;;;4958201;28;20612;-65
2024/01/29 00:17:20;;;;;;;28.38;11.52;;;-2.20;99.90;;;;;;4975249;28;20033;-65
2024/01/29 00:19:45;;;;;;;23.67;11.30;;;-2.70;99.90;;;;;;4975463;28;20081;-65
2024/01/29 00:22:11;;;;;;;32.08;11.93;;;-2.30;99.90;;;;;;4975510;28;20109;-65
2024/01/29 00:24:37;;;;;;;31.88;12.70;;;-2.70;99.90;;;;;;4975545;28;20455;-65
2024/01/29 00:27:02;;;;;;;26.98;11.85;;;-2.70;99.90;;;;;;4957468;28;20074;-65
2024/01/29 00:29:28;;;;;;;28.38;11.43;;;-2.70;99.90;;;;;;4957902;28;20031;-65
2024/01/29 00:31:54;;;;;;;31.02;12.05;;;-2.70;99.90;;;;;;4975593;28;20031;-65
2024/01/29 00:34:20;;;;;;;27.23;10.82;;;-2.70;99.90;;;;;;4975299;28;20133;-65
2024/01/29 00:36:45;;;;;;;31.23;11.98;;;-2.70;99.90;;;;;;4957889;28;20034;-65
2024/01/29 00:39:13;;;;;;;28.75;11.27;;;-2.70;99.90;;;;;;4975235;28;20030;-65
2024/01/29 00:41:38;;;;;;;50.53;11.40;;;-2.70;99.90;;;;;;4975184;28;20034;-65
2024/01/29 00:44:04;;;;;;;23.02;11.10;;;-2.70;99.90;;;;;;4975068;28;20042;-65
2024/01/29 00:46:30;;;;;;;28.02;11.35;;;-2.70;99.90;;;;;;4957775;28;20035;-65
2024/01/29 00:48:56;;;;;;;31.60;12.52;;;-2.90;99.90;;;;;;4957763;28;20481;-65
2024/01/29 00:51:21;;;;;;;27.95;12.15;;;-2.90;99.90;;;;;;4974812;28;20106;-65
2024/01/29 00:53:47;;;;;;;25.17;11.35;;;-2.80;99.90;;;;;;4975242;28;20086;-65
2024/01/29 00:56:13;;;;;;;27.75;11.85;;;-2.80;99.90;;;;;;4976590;28;20371;-65
2024/01/29 00:58:43;;;;;;;24.35;11.85;;;-2.00;99.90;;;;;;4979207;28;20027;-65
2024/01/29 01:01:09;;;;;;;28.00;11.15;;;-2.90;99.90;;;;;;4978996;28;20026;-65
2024/01/29 01:03:34;;;;;;;26.17;10.82;;;-1.50;99.90;;;;;;4979190;28;20035;-65
2024/01/29 01:06:00;;;;;;;27.88;11.75;;;-1.20;99.90;;;;;;4961552;28;20022;-65
2024/01/29 01:08:26;;;;;;;25.45;10.15;;;-2.90;99.90;;;;;;4979188;28;20030;-65
2024/01/29 01:10:51;;;;;;;22.40;10.55;;;-3.10;99.90;;;;;;4978864;28;20110;-65
2024/01/29 01:13:17;;;;;;;24.65;10.38;;;-2.90;99.90;;;;;;4979113;28;20045;-65
2024/01/29 01:15:43;;;;;;;26.27;10.15;;;-2.90;99.90;;;;;;4961429;28;20063;-65
2024/01/29 01:18:08;;;;;;;28.83;10.63;;;-2.90;99.90;;;;;;4978553;28;20650;-65
2024/01/29 01:20:34;;;;;;;29.27;10.77;;;-2.90;99.90;;;;;;4978737;28;20451;-65
2024/01/29 01:23:01;;;;;;;26.02;10.77;;;-1.50;99.90;;;;;;4978550;28;20366;-65
2024/01/29 01:25:27;;;;;;;27.05;9.82;;;-1.90;99.90;;;;;;4978763;28;20411;-66
2024/01/29 01:27:53;;;;;;;22.25;9.45;;;-2.90;99.90;;;;;;4978778;28;20507;-65
2024/01/29 01:30:21;;;;;;;24.08;9.80;;;-2.90;99.90;;;;;;4979760;28;20119;-66
2024/01/29 01:32:47;;;;;;;20.17;9.55;;;-2.90;99.90;;;;;;4964282;28;20022;-66
2024/01/29 01:35:12;;;;;;;28.70;10.02;;;-1.70;99.90;;;;;;4980987;28;20031;-65
2024/01/29 01:37:38;;;;;;;19.33;9.75;;;-2.90;99.90;;;;;;4980656;28;20045;-65
2024/01/29 01:40:04;;;;;;;22.50;10.05;;;-2.90;99.90;;;;;;4979338;28;20126;-65
2024/01/29 01:42:30;;;;;;;26.20;9.57;;;-2.90;99.90;;;;;;4978118;28;20386;-65
2024/01/29 01:44:56;;;;;;;20.90;10.50;;;-2.20;99.90;;;;;;4977926;28;20070;-65
2024/01/29 01:47:22;;;;;;;23.98;9.57;;;-2.90;99.90;;;;;;4977967;28;20058;-65
2024/01/29 01:49:48;;;;;;;22.02;9.77;;;-2.00;99.90;;;;;;4978214;28;20031;-65
2024/01/29 01:52:17;;;;;;;24.83;9.45;;;-2.90;99.90;;;;;;4978098;28;20031;-65
2024/01/29 01:54:43;;;;;;;;;;;-2.90;99.90;;;;;;4961120;28;20027;-65
2024/01/29 01:57:09;;;;;;;21.77;9.60;;;-2.90;99.90;;;;;;4960737;28;19906;-65
2024/01/29 01:59:37;;;;;;;22.55;10.75;;;-2.90;99.90;;;;;;4978116;28;20027;-65
2024/01/29 02:02:03;;;;;;;28.58;11.60;;;-2.90;99.90;;;;;;4978326;28;20110;-65
2024/01/29 02:04:29;;;;;;;18.45;8.43;;;-2.90;99.90;;;;;;4977899;28;20043;-65
2024/01/29 02:06:55;;;;;;;20.05;9.63;;;-2.90;99.90;;;;;;4960478;28;20034;-65
2024/01/29 02:09:21;;;;;;;18.77;9.63;;;-2.90;99.90;;;;;;4976977;28;20513;-65
2024/01/29 02:11:47;;;;;;;21.88;8.82;;;-2.90;99.90;;;;;;4978018;28;20490;-65
2024/01/29 02:14:13;;;;;;;21.75;9.93;;;-3.10;99.90;;;;;;4977713;28;20035;-65
2024/01/29 02:16:39;;;;;;;24.25;10.65;;;-1.80;99.90;;;;;;4960274;28;20467;-65
2024/01/29 02:19:17;;;;;;;23.33;9.80;;;-3.00;99.90;;;;;;4977609;28;20099;-65
2024/01/29 02:21:44;;;;;;;24.70;10.25;;;-3.00;99.90;;;;;;4960514;28;20030;-65
2024/01/29 02:24:10;;;;;;;24.73;9.32;;;-2.60;99.90;;;;;;4977475;28;20042;-65
2024/01/29 02:26:35;;;;;;;25.08;9.77;;;-3.00;99.90;;;;;;4977500;28;20065;-65
2024/01/29 02:29:01;;;;;;;20.17;9.25;;;-2.10;99.90;;;;;;4977462;28;20031;-65
2024/01/29 02:31:27;;;;;;;27.02;9.35;;;-3.10;99.90;;;;;;4960105;28;20034;-65
2024/01/29 02:33:52;;;;;;;18.58;8.85;;;-3.00;99.90;;;;;;4977802;28;20082;-65
2024/01/29 02:36:18;;;;;;;19.92;8.75;;;-3.00;99.90;;;;;;4960004;28;20039;-65
2024/01/29 02:38:44;;;;;;;25.55;9.38;;;-2.90;99.90;;;;;;4977565;28;20037;-65
2024/01/29 02:41:09;;;;;;;19.45;8.32;;;-2.90;99.90;;;;;;4977288;28;20034;-65
2024/01/29 02:43:35;;;;;;;19.90;9.20;;;-2.90;99.90;;;;;;4976929;28;20035;-65
2024/01/29 02:46:01;;;;;;;24.90;8.68;;;-2.80;99.90;;;;;;4977141;28;20038;-64
2024/01/29 02:48:27;;;;;;;19.38;8.65;;;-2.50;99.90;;;;;;4959901;28;20037;-65
2024/01/29 02:50:52;;;;;;;23.88;8.68;;;-2.40;99.90;;;;;;4977095;28;20026;-65
2024/01/29 02:53:18;;;;;;;21.77;8.15;;;-1.90;99.90;;;;;;4977298;28;20360;-65
2024/01/29 02:55:44;;;;;;;16.08;7.35;;;-2.60;99.90;;;;;;4976962;28;20093;-65
2024/01/29 02:58:09;;;;;;;16.98;7.43;;;-2.60;99.90;;;;;;4977212;28;20022;-65
2024/01/29 03:00:35;;;;;;;22.67;7.28;;;-2.60;99.90;;;;;;4976850;28;20027;-65
2024/01/29 03:03:01;;;;;;;13.45;6.78;;;-2.60;99.90;;;;;;4976575;28;20027;-65
2024/01/29 03:05:26;;;;;;;18.77;7.03;;;-2.50;99.90;;;;;;4976770;28;20026;-65
2024/01/29 03:07:52;;;;;;;17.85;7.75;;;-1.80;99.90;;;;;;4976976;28;20038;-65
2024/01/29 03:10:18;;;;;;;27.55;7.78;;;-2.30;99.90;;;;;;4976696;28;20030;-65
2024/01/29 03:12:44;;;;;;;20.45;7.85;;;-2.60;99.90;;;;;;4976733;28;20031;-64
2024/01/29 03:15:09;;;;;;;19.40;8.80;;;-2.60;99.90;;;;;;4959307;28;20399;-65
2024/01/29 03:17:35;;;;;;;24.25;9.15;;;-2.50;99.90;;;;;;4959125;28;20027;-65
2024/01/29 03:20:01;;;;;;;15.07;8.55;;;-2.50;99.90;;;;;;4975596;28;20023;-65
2024/01/29 03:22:26;;;;;;;27.48;9.27;;;-2.50;99.90;;;;;;4976164;28;20150;-65
2024/01/29 03:24:52;;;;;;;19.98;8.82;;;-2.70;99.90;;;;;;4976302;28;20042;-65
2024/01/29 03:27:18;;;;;;;17.42;7.93;;;-2.20;99.90;;;;;;4958892;28;20055;-65
2024/01/29 03:29:43;;;;;;;19.70;8.88;;;-2.40;99.90;;;;;;4958708;28;20123;-65
2024/01/29 03:32:09;;;;;;;21.40;9.25;;;-2.30;99.90;;;;;;4975993;28;20031;-65
2024/01/29 03:34:35;;;;;;;21.02;10.27;;;-2.20;99.90;;;;;;4976257;28;20059;-64
2024/01/29 03:37:00;;;;;;;19.85;9.57;;;-2.20;99.90;;;;;;4976132;28;20038;-65
2024/01/29 03:39:26;;;;;;;22.08;9.50;;;-2.10;99.90;;;;;;4976094;28;20026;-65
2024/01/29 03:41:52;;;;;;;22.63;9.93;;;-2.10;99.90;;;;;;4976103;28;20131;-65
2024/01/29 03:44:17;;;;;;;22.83;9.93;;;-2.10;99.90;;;;;;4976004;28;20092;-65
2024/01/29 03:46:43;;;;;;;18.50;8.88;;;-2.10;99.90;;;;;;4975990;28;20077;-65
2024/01/29 03:49:09;;;;;;;22.48;9.93;;;-1.90;99.90;;;;;;4975943;28;20061;-65
2024/01/29 03:51:34;;;;;;;21.98;10.73;;;-2.20;99.90;;;;;;4975660;28;20121;-65
2024/01/29 03:54:01;;;;;;;21.67;9.55;;;-2.10;99.90;;;;;;4958544;28;20030;-65
2024/01/29 03:56:26;;;;;;;26.52;10.70;;;-2.20;99.90;;;;;;4958561;28;20371;-64
2024/01/29 03:58:52;;;;;;;25.98;10.48;;;-2.20;99.90;;;;;;4975805;28;20030;-65
2024/01/29 04:01:27;;;;;;;27.67;10.90;;;-2.20;99.90;;;;;;4958430;28;20038;-65
2024/01/29 04:03:53;;;;;;;34.97;11.55;;;-2.20;99.90;;;;;;4975365;28;20126;-65
2024/01/29 04:06:19;;;;;;;28.60;11.15;;;-2.10;99.90;;;;;;4975639;28;20117;-65
2024/01/29 04:08:45;;;;;;;24.58;11.40;;;-2.10;99.90;;;;;;4976235;28;20027;-65
2024/01/29 04:11:11;;;;;;;29.67;10.85;;;-2.10;99.90;;;;;;4958535;28;20466;-65
2024/01/29 04:13:37;;;;;;;27.17;12.07;;;-2.00;99.90;;;;;;4975603;28;20471;-65
2024/01/29 04:16:03;;;;;;;25.10;11.20;;;-1.90;99.90;;;;;;4975511;28;20050;-65
2024/01/29 04:18:30;;;;;;;31.13;11.73;;;-2.00;99.90;;;;;;4958124;28;20027;-65
2024/01/29 04:20:56;;;;;;;26.90;12.07;;;-2.00;99.90;;;;;;4975518;28;20026;-64
2024/01/29 04:23:22;;;;;;;26.92;11.80;;;-2.00;99.90;;;;;;4975096;28;20049;-64
2024/01/29 04:25:47;;;;;;;36.08;11.70;;;-2.00;99.90;;;;;;4975211;28;20031;-65
2024/01/29 04:28:13;;;;;;;21.92;11.07;;;-2.00;99.90;;;;;;4974920;28;20050;-65
2024/01/29 04:30:39;;;;;;;27.55;11.82;;;-2.00;99.90;;;;;;4975329;28;20086;-65
2024/01/29 04:33:04;;;;;;;25.25;10.85;;;-2.10;99.90;;;;;;4974315;28;20030;-65
2024/01/29 04:35:30;;;;;;;25.25;10.32;;;-1.00;99.90;;;;;;4975334;28;20039;-64
2024/01/29 04:37:55;;;;;;;24.73;13.23;;;-2.10;99.90;;;;;;4975252;28;20031;-64
2024/01/29 04:40:22;;;;;;;22.98;12.07;;;-2.10;99.90;;;;;;4957890;28;20423;-65
2024/01/29 04:42:49;;;;;;;25.00;12.00;;;-2.10;99.90;;;;;;4975131;28;20131;-64
2024/01/29 04:45:15;;;;;;;25.73;11.95;;;-2.10;99.90;;;;;;4957766;28;20126;-65
2024/01/29 04:47:40;;;;;;;26.25;12.07;;;-2.10;99.90;;;;;;4975141;28;20158;-65
2024/01/29 04:50:06;;;;;;;20.98;11.05;;;-1.60;99.90;;;;;;4975217;28;20034;-65
2024/01/29 04:52:32;;;;;;;23.67;11.75;;;-2.20;99.90;;;;;;4975651;28;20027;-66
2024/01/29 04:54:58;;;;;;;22.38;11.75;;;-1.80;99.90;;;;;;4958744;28;20042;-65
2024/01/29 04:57:24;;;;;;;25.83;11.02;;;-2.00;99.90;;;;;;4959157;28;20030;-65
2024/01/29 04:59:49;;;;;;;24.20;11.50;;;-2.20;99.90;;;;;;4976270;28;20455;-66
2024/01/29 05:02:16;;;;;;;26.00;12.20;;;-2.10;99.90;;;;;;4975512;28;20418;-65
2024/01/29 05:04:42;;;;;;;23.65;12.68;;;-2.20;99.90;;;;;;4975243;28;20034;-65
2024/01/29 05:07:08;;;;;;;25.35;12.75;;;-2.20;99.90;;;;;;4975063;28;20123;-64
2024/01/29 05:09:33;;;;;;;23.88;13.02;;;-2.20;99.90;;;;;;4974757;28;20070;-65
2024/01/29 05:11:59;;;;;;;27.23;12.15;;;-2.20;99.90;;;;;;4974659;28;20031;-64
2024/01/29 05:14:27;;;;;;;26.67;12.50;;;-2.20;99.90;;;;;;4974742;28;20534;-64
2024/01/29 05:16:52;;;;;;;24.50;13.23;;;-1.90;99.90;;;;;;4957530;28;20062;-64
2024/01/29 05:19:18;;;;;;;29.38;12.80;;;-2.00;99.90;;;;;;4975043;28;20471;-65
2024/01/29 05:21:43;;;;;;;27.20;13.32;;;-2.10;99.90;;;;;;4975912;28;20113;-64
2024/01/29 05:24:09;;;;;;;31.80;13.00;;;-2.10;99.90;;;;;;4959742;28;20070;-65
2024/01/29 05:26:35;;;;;;;29.75;13.60;;;-1.60;99.90;;;;;;4957590;28;20117;-64
2024/01/29 05:29:00;;;;;;;36.75;14.05;;;-1.90;99.90;;;;;;4975206;28;20077;-65
2024/01/29 05:31:26;;;;;;;26.88;14.18;;;-2.10;99.90;;;;;;4957140;28;20076;-64
2024/01/29 05:33:52;;;;;;;26.55;12.60;;;-2.10;99.90;;;;;;4957451;28;20082;-64
2024/01/29 05:36:17;;;;;;;25.95;12.45;;;-2.10;99.90;;;;;;4974668;28;20485;-64
2024/01/29 05:38:43;;;;;;;30.75;12.65;;;-2.20;99.90;;;;;;4957056;28;20030;-64
2024/01/29 05:41:08;;;;;;;24.73;12.60;;;-2.20;99.90;;;;;;4956879;28;20053;-64
2024/01/29 05:43:34;;;;;;;28.52;13.02;;;-1.50;99.90;;;;;;4959163;28;20035;-64
2024/01/29 05:46:00;;;;;;;35.30;14.07;;;-1.90;99.90;;;;;;4978320;28;20068;-64
2024/01/29 05:48:25;;;;;;;36.70;14.43;;;-2.20;99.90;;;;;;4978124;28;20033;-65
2024/01/29 05:50:51;;;;;;;32.20;15.95;;;-2.20;99.90;;;;;;4961057;28;20122;-64
2024/01/29 05:53:20;;;;;;;27.83;14.13;;;-1.90;99.90;;;;;;4978163;28;20479;-64
2024/01/29 05:55:45;;;;;;;;;;;-2.10;99.90;;;;;;4978581;28;20023;-64
2024/01/29 05:58:11;;;;;;;28.42;13.93;;;-2.10;99.90;;;;;;4960962;28;20445;-64
2024/01/29 06:00:37;;;;;;;32.13;14.27;;;-2.10;99.90;;;;;;4978107;28;20501;-64
2024/01/29 06:03:02;;;;;;;24.10;14.75;;;-2.10;99.90;;;;;;4977744;28;20088;-64
2024/01/29 06:05:28;;;;;;;27.67;13.75;;;-2.10;99.90;;;;;;4977948;28;20442;-65
2024/01/29 06:07:55;;;;;;;28.00;14.05;;;-2.00;99.90;;;;;;4961619;28;20038;-65
2024/01/29 06:10:21;;;;;;;33.38;14.50;;;-2.10;99.90;;;;;;4978800;28;20509;-64
2024/01/29 06:12:47;;;;;;;28.17;13.20;;;-2.10;99.90;;;;;;4979186;28;20027;-64
2024/01/29 06:15:13;;;;;;;25.08;13.27;;;-2.20;99.90;;;;;;4961829;28;20077;-64
2024/01/29 06:17:40;;;;;;;32.25;13.93;;;-2.20;99.90;;;;;;4977977;28;20051;-64
2024/01/29 06:20:07;;;;;;;30.33;14.10;;;-2.30;99.90;;;;;;4960360;28;20390;-64
2024/01/29 06:22:33;;;;;;;31.65;13.52;;;-2.30;99.90;;;;;;4977733;28;20065;-64
2024/01/29 06:24:58;;;;;;;24.50;12.75;;;-2.40;99.90;;;;;;4960178;28;20452;-64
2024/01/29 06:27:24;;;;;;;35.25;14.48;;;-2.40;99.90;;;;;;4957158;29;20051;-64
2024/01/29 06:29:49;;;;;;;30.17;13.25;;;-2.40;99.90;;;;;;4957244;29;20039;-64
2024/01/29 06:32:15;;;;;;;30.02;14.27;;;-2.50;99.90;;;;;;4958265;29;20368;-64
2024/01/29 06:34:41;;;;;;;28.70;14.20;;;-2.40;99.90;;;;;;4957882;29;20031;-64
2024/01/29 06:37:07;;;;;;;30.98;13.45;;;-2.40;99.90;;;;;;4957096;29;20452;-64
2024/01/29 06:39:32;;;;;;;32.63;14.48;;;-2.40;99.90;;;;;;4958197;29;20031;-64
2024/01/29 06:41:58;;;;;;;31.05;14.23;;;-2.40;99.90;;;;;;4941585;29;20031;-64
2024/01/29 06:44:24;;;;;;;37.78;14.68;;;-0.50;99.90;;;;;;4957963;29;20046;-64
2024/01/29 06:46:49;;;;;;;30.35;14.32;;;-2.40;99.90;;;;;;4957869;29;20115;-64
2024/01/29 06:49:26;;;;;;;40.83;14.70;;;-2.30;99.90;;;;;;4956812;29;20078;-64
2024/01/29 06:51:52;;;;;;;30.58;15.13;;;-2.30;99.90;;;;;;4958087;29;20082;-65
2024/01/29 06:54:18;;;;;;;37.20;14.60;;;-2.10;99.90;;;;;;4940315;29;20031;-64
2024/01/29 06:56:44;;;;;;;35.65;16.27;;;-2.20;99.90;;;;;;4958167;29;20031;-64
2024/01/29 06:59:10;;;;;;;29.40;14.20;;;-2.10;99.90;;;;;;4957880;29;20035;-64
2024/01/29 07:01:37;;;;;;;30.90;15.27;;;-2.10;99.90;;;;;;4940030;29;20027;-64
2024/01/29 07:04:03;;;;;;;31.52;15.52;;;-2.00;99.90;;;;;;4957519;29;20062;-64
2024/01/29 07:06:29;;;;;;;37.25;17.38;;;-1.90;99.90;;;;;;4957484;29;20042;-64
2024/01/29 07:08:55;;;;;;;41.53;17.30;;;-1.80;99.90;;;;;;4955756;29;20392;-64
2024/01/29 07:11:20;;;;;;;39.47;16.10;;;-0.30;99.90;;;;;;4957253;29;20105;-64
2024/01/29 07:13:46;;;;;;;38.88;17.58;;;-1.50;99.90;;;;;;4957625;29;20464;-64
2024/01/29 07:16:12;;;;;;;32.67;15.18;;;-1.40;99.90;;;;;;4956309;29;20023;-65
2024/01/29 07:18:37;;;;;;;39.85;17.27;;;-1.40;99.90;;;;;;4956969;29;20030;-64
2024/01/29 07:21:03;;;;;;;29.58;16.08;;;-1.20;99.90;;;;;;4957177;29;20031;-64
2024/01/29 07:23:29;;;;;;;41.47;16.40;;;-1.20;99.90;;;;;;4956663;29;20131;-64
2024/01/29 07:25:55;;;;;;;36.92;17.27;;;-1.10;99.90;;;;;;4957231;28;20036;-65
2024/01/29 07:28:21;;;;;;;33.65;16.67;;;-0.90;99.90;;;;;;4976626;28;20519;-64
2024/01/29 07:30:47;;;;;;;30.65;15.90;;;-0.60;99.90;;;;;;4976383;28;20030;-65
2024/01/29 07:33:12;;;;;;;29.20;15.35;;;-0.50;99.90;;;;;;4976263;28;20026;-65
2024/01/29 07:35:38;;;;;;;37.50;15.80;;;-0.40;99.90;;;;;;4976245;28;20030;-64
2024/01/29 07:38:05;;;;;;;29.05;16.23;;;0.00;99.90;;;;;;4976183;28;20027;-64
2024/01/29 07:40:32;;;;;;;40.22;16.63;;;0.10;99.90;;;;;;4975830;28;20037;-64
2024/01/29 07:42:59;;;;;;;48.13;17.27;;;0.20;99.90;;;;;;4976131;28;20027;-64
2024/01/29 07:45:25;;;;;;;31.00;14.85;;;0.30;99.90;;;;;;4975799;28;20395;-64
2024/01/29 07:47:52;;;;;;;30.52;14.15;;;0.30;99.90;;;;;;4958911;28;20027;-64
2024/01/29 07:50:17;;;;;;;33.63;14.98;;;0.30;99.90;;;;;;4975814;28;20031;-65
2024/01/29 07:52:43;;;;;;;30.58;15.55;;;0.50;99.90;;;;;;4958667;28;20118;-64
2024/01/29 07:55:09;;;;;;;30.38;15.00;;;0.40;99.90;;;;;;4975976;28;20066;-64
2024/01/29 07:57:36;;;;;;;30.33;15.25;;;0.50;99.90;;;;;;4975791;28;20031;-64
2024/01/29 08:00:03;;;;;;;35.80;15.48;;;0.60;99.90;;;;;;4958509;28;20382;-64
2024/01/29 08:02:29;;;;;;;32.47;15.98;;;0.90;99.90;;;;;;4958532;28;20375;-64
2024/01/29 08:04:55;;;;;;;28.20;13.55;;;1.10;99.90;;;;;;4976232;28;20113;-65
2024/01/29 08:07:21;;;;;;;24.63;13.75;;;1.20;99.90;;;;;;4975867;28;20062;-65
2024/01/29 08:09:47;;;;;;;30.48;14.38;;;1.10;99.90;;;;;;4975915;28;20466;-65
2024/01/29 08:12:13;;;;;;;27.67;14.05;;;1.20;99.90;;;;;;4958741;28;20081;-65
2024/01/29 08:14:39;;;;;;;30.75;14.68;;;1.30;99.90;;;;;;4958376;28;20379;-65
2024/01/29 08:17:05;;;;;;;21.85;11.98;;;1.50;99.90;;;;;;4975272;28;20027;-65
2024/01/29 08:19:31;;;;;;;27.83;13.32;;;1.80;99.90;;;;;;4975477;28;20031;-65
2024/01/29 08:21:57;;;;;;;22.40;12.57;;;2.00;99.90;;;;;;4958210;28;20075;-65
2024/01/29 08:24:23;;;;;;;21.10;12.13;;;2.40;99.90;;;;;;4975378;28;20382;-65
2024/01/29 08:26:49;;;;;;;24.48;13.15;;;2.90;99.90;;;;;;4975012;28;20050;-65
2024/01/29 08:29:14;;;;;;;20.25;11.35;;;3.10;99.90;;;;;;4975359;28;20034;-65
2024/01/29 08:31:40;;;;;;;23.10;11.82;;;3.40;99.90;;;;;;4975055;28;20110;-66
2024/01/29 08:34:05;;;;;;;22.55;12.80;;;3.60;99.90;;;;;;4975321;28;20037;-65
2024/01/29 08:36:31;;;;;;;17.08;10.95;;;4.00;99.90;;;;;;4974955;28;20102;-66
2024/01/29 08:38:57;;;;;;;21.95;11.77;;;3.80;99.90;;;;;;4975705;28;20035;-65
2024/01/29 08:41:22;;;;;;;23.95;12.27;;;3.90;99.90;;;;;;4974868;28;20481;-65
2024/01/29 08:43:48;;;;;;;25.38;12.52;;;3.90;99.90;;;;;;4957376;28;20035;-65
2024/01/29 08:46:14;;;;;;;21.45;12.02;;;4.30;99.90;;;;;;4975455;28;20466;-65
2024/01/29 08:48:40;;;;;;;20.42;12.38;;;4.80;99.90;;;;;;4957740;28;20430;-65
2024/01/29 08:51:05;;;;;;;18.60;12.27;;;4.70;99.90;;;;;;4975115;28;20027;-65
2024/01/29 08:53:31;;;;;;;23.23;12.20;;;4.70;99.90;;;;;;4975035;28;20038;-65
2024/01/29 08:55:57;;;;;;;21.38;11.23;;;5.40;99.90;;;;;;4975073;28;20151;-65
2024/01/29 08:58:23;;;;;;;22.08;12.07;;;5.80;99.90;;;;;;4974979;28;20363;-65
2024/01/29 09:00:52;;;;;;;22.25;11.70;;;6.40;99.90;;;;;;4975033;28;20034;-65
2024/01/29 09:03:18;;;;;;;18.63;11.52;;;7.00;99.90;;;;;;4974891;28;20027;-65
2024/01/29 09:05:44;;;;;;;24.45;11.52;;;7.50;99.90;;;;;;4974639;28;20108;-66
2024/01/29 09:08:10;;;;;;;19.42;11.23;;;8.20;99.90;;;;;;4974876;28;20027;-65
2024/01/29 09:10:35;;;;;;;20.20;11.57;;;8.80;99.90;;;;;;4957522;28;20027;-66
2024/01/29 09:13:01;;;;;;;20.63;11.48;;;9.40;97.80;;;;;;4957352;28;20027;-66
2024/01/29 09:15:27;;;;;;;16.85;11.02;;;9.60;95.80;;;;;;4957930;28;20035;-66
2024/01/29 09:17:53;;;;;;;19.00;11.40;;;9.70;94.70;;;;;;4975546;28;20034;-66
2024/01/29 09:20:19;;;;;;;16.48;10.02;;;9.80;94.20;;;;;;4961289;28;20027;-65
2024/01/29 09:22:44;;;;;;;16.08;10.40;;;9.90;93.40;;;;;;4978343;28;20037;-65
2024/01/29 09:25:11;;;;;;;18.58;10.48;;;10.10;92.80;;;;;;4978276;28;20093;-65
2024/01/29 09:27:36;;;;;;;17.33;10.30;;;9.90;92.40;;;;;;4978004;28;20046;-66
2024/01/29 09:30:04;;;;;;;17.42;10.30;;;10.20;92.70;;;;;;4978255;28;20030;-65
2024/01/29 09:32:30;;;;;;;15.48;9.75;;;10.30;91.00;;;;;;4978361;28;20063;-65
2024/01/29 09:34:56;;;;;;;15.52;10.35;;;10.50;91.20;;;;;;4978052;28;20474;-65
2024/01/29 09:37:21;;;;;;;17.08;10.90;;;10.90;90.10;;;;;;4961210;28;20118;-65
2024/01/29 09:39:47;;;;;;;18.10;10.43;;;11.20;88.80;;;;;;4961515;28;20027;-66
2024/01/29 09:42:17;;;;;;;15.18;9.88;;;11.50;85.50;;;;;;4978232;28;20110;-66
2024/01/29 09:44:46;;;;;;;15.27;10.02;;;11.50;84.30;;;;;;4960987;28;20122;-66
2024/01/29 09:47:13;;;;;;;17.13;9.65;;;11.60;82.50;;;;;;4960807;28;20129;-66
2024/01/29 09:49:39;;;;;;;15.63;9.38;;;11.50;82.10;;;;;;4978553;28;20086;-66
2024/01/29 09:52:09;;;;;;;17.38;9.90;;;11.70;80.00;;;;;;4960413;28;20026;-66
2024/01/29 09:54:36;;;;;;;14.32;9.63;;;11.60;80.20;;;;;;4978257;28;20462;-66
2024/01/29 09:57:02;;;;;;;17.88;9.77;;;11.40;79.50;;;;;;4977841;28;20035;-66
2024/01/29 09:59:28;;;;;;;15.60;9.45;;;11.60;80.00;;;;;;4960672;28;20023;-67
2024/01/29 10:01:53;;;;;;;16.77;9.15;;;11.90;78.40;;;;;;4977945;28;20027;-67
2024/01/29 10:04:21;;;;;;;16.10;9.93;;;12.40;77.70;;;;;;4977951;28;20038;-67
2024/01/29 10:06:47;;;;;;;15.10;8.85;;;12.60;75.40;;;;;;4978255;28;20027;-67
2024/01/29 10:09:15;;;;;;;14.13;8.52;;;13.00;74.20;;;;;;4960114;28;20042;-67
2024/01/29 10:11:45;;;;;;;19.75;9.63;;;12.60;72.00;;;;;;4960363;28;20490;-67
2024/01/29 10:14:12;;;;;;;17.48;9.98;;;12.20;74.00;;;;;;4977966;28;20035;-67
2024/01/29 10:16:37;;;;;;;14.73;9.40;;;12.10;74.00;;;;;;4977448;28;20031;-67
2024/01/29 10:19:03;;;;;;;14.20;9.15;;;11.40;74.60;;;;;;4977566;28;20026;-67
2024/01/29 10:21:38;;;;;;;17.25;10.10;;;11.50;75.50;;;;;;4977516;28;20031;-67
2024/01/29 10:24:04;;;;;;;16.45;9.52;;;11.50;75.50;;;;;;4960903;28;20121;-67
2024/01/29 10:26:29;;;;;;;14.77;8.98;;;11.40;76.00;;;;;;4977327;28;20043;-67
2024/01/29 10:29:01;;;;;;;15.05;9.15;;;11.30;75.80;;;;;;4977137;28;20027;-67
2024/01/29 10:31:26;;;;;;;13.88;9.23;;;11.70;75.20;;;;;;4959735;28;20031;-67
2024/01/29 10:33:52;;;;;;;20.23;9.63;;;12.00;74.20;;;;;;4977345;28;20031;-67
2024/01/29 10:36:19;;;;;;;14.10;8.85;;;12.00;73.00;;;;;;4977135;28;20034;-67
2024/01/29 10:38:46;;;;;;;13.05;8.90;;;12.00;72.70;;;;;;4959828;28;20122;-67
2024/01/29 10:41:17;;;;;;;18.35;9.45;;;12.00;73.60;;;;;;4976964;28;20023;-67
2024/01/29 10:43:53;;;;;;;17.42;8.95;;;11.60;74.10;;;;;;4959700;28;20475;-66
2024/01/29 10:46:20;;;;;;;16.42;9.45;;;10.60;76.30;;;;;;4977179;28;20030;-67
2024/01/29 10:48:47;;;;;;;20.13;9.70;;;10.00;78.60;;;;;;4977043;28;20031;-66
2024/01/29 10:51:14;;;;;;;13.45;9.27;;;9.70;80.40;;;;;;4959567;28;20038;-66
2024/01/29 10:53:44;;;;;;;16.13;9.27;;;9.70;81.20;;;;;;4977157;28;20463;-66
2024/01/29 10:56:11;;;;;;;18.08;9.32;;;10.00;81.80;;;;;;4977000;28;20031;-66
2024/01/29 10:58:38;;;;;;;14.07;9.05;;;10.20;80.00;;;;;;4976935;28;20030;-66
2024/01/29 11:01:05;;;;;;;13.73;9.55;;;10.70;79.40;;;;;;4976431;28;20379;-67
2024/01/29 11:03:31;;;;;;;17.58;9.43;;;11.10;78.00;;;;;;4959358;28;20034;-66
2024/01/29 11:06:04;;;;;;;20.08;10.10;;;11.60;76.50;;;;;;4976764;28;20490;-66
2024/01/29 11:08:33;;;;;;;19.55;9.70;;;12.10;75.40;;;;;;4976897;28;20037;-67
2024/01/29 11:11:00;;;;;;;;;;;12.10;73.80;;;;;;4976902;28;20381;-67
2024/01/29 11:13:28;;;;;;;14.50;8.65;;;12.80;73.20;;;;;;4959205;28;19914;-66
2024/01/29 11:15:54;;;;;;;12.75;9.10;;;13.20;71.30;;;;;;4976908;28;20027;-66
2024/01/29 11:18:20;;;;;;;13.15;8.70;;;13.60;70.10;;;;;;4976459;28;20073;-66
2024/01/29 11:20:50;;;;;;;14.13;8.25;;;13.90;69.40;;;;;;4958948;28;20094;-67
2024/01/29 11:23:16;;;;;;;12.00;8.38;;;14.40;66.80;;;;;;4958884;28;20467;-67
2024/01/29 11:25:41;;;;;;;13.77;8.10;;;14.30;67.00;;;;;;4976344;28;20038;-66
2024/01/29 11:28:08;;;;;;;14.73;8.63;;;13.80;67.60;;;;;;4976657;28;20058;-66
2024/01/29 11:30:33;;;;;;;10.30;7.72;;;13.70;67.40;;;;;;4958890;28;20031;-66
2024/01/29 11:33:17;;;;;;;13.23;8.02;;;13.80;65.80;;;;;;4976253;28;20118;-66
2024/01/29 11:35:45;;;;;;;16.67;8.43;;;13.90;65.80;;;;;;4958806;28;20031;-66
2024/01/29 11:38:13;;;;;;;15.45;8.68;;;14.30;66.30;;;;;;4976402;28;20022;-67
2024/01/29 11:40:43;;;;;;;11.30;7.60;;;14.70;65.40;;;;;;4975312;28;20026;-66
2024/01/29 11:43:14;;;;;;;11.93;7.95;;;14.30;65.10;;;;;;4976063;28;20081;-67
2024/01/29 11:45:40;;;;;;;11.80;8.18;;;14.70;64.20;;;;;;4975892;28;20047;-67
2024/01/29 11:48:13;;;;;;;14.23;8.27;;;14.80;63.40;;;;;;4958575;28;20424;-67
2024/01/29 11:50:47;;;;;;;12.68;7.63;;;14.40;64.10;;;;;;4975918;28;20019;-66
2024/01/29 11:53:14;;;;;;;15.43;8.40;;;14.60;63.80;;;;;;4958468;28;20065;-67
2024/01/29 11:55:41;;;;;;;14.27;7.97;;;15.20;63.80;;;;;;4958842;28;20038;-66
2024/01/29 11:58:18;;;;;;;13.32;7.95;;;15.70;61.40;;;;;;4958492;28;20054;-66
2024/01/29 12:00:45;;;;;;;10.60;7.05;;;15.00;60.90;;;;;;4975832;28;20023;-66
2024/01/29 12:03:14;;;;;;;11.60;8.23;;;14.90;61.90;;;;;;4958242;28;20558;-66
2024/01/29 12:05:40;;;;;;;11.55;7.47;;;14.00;62.70;;;;;;4975579;28;20086;-66
2024/01/29 12:08:16;;;;;;;11.10;7.25;;;13.50;64.60;;;;;;4975558;28;20426;-66
2024/01/29 12:10:46;;;;;;;12.70;8.18;;;14.00;64.60;;;;;;4975758;28;20414;-66
2024/01/29 12:13:16;;;;;;;13.13;7.90;;;13.90;63.80;;;;;;4958120;28;20117;-66
2024/01/29 12:15:43;;;;;;;11.85;7.72;;;14.60;63.50;;;;;;4975151;28;20447;-66
2024/01/29 12:18:15;;;;;;;11.10;7.03;;;15.40;61.70;;;;;;4958013;28;20027;-67
2024/01/29 12:20:41;;;;;;;10.05;7.13;;;16.10;59.70;;;;;;4975613;28;20030;-67
2024/01/29 12:23:07;;;;;;;11.27;7.10;;;16.20;58.70;;;;;;4975294;28;20089;-66
2024/01/29 12:25:33;;;;;;;9.95;6.70;;;16.30;59.60;;;;;;4957796;28;20045;-67
2024/01/29 12:28:09;;;;;;;11.48;7.40;;;15.80;58.10;;;;;;4975620;28;20046;-66